createdAt,value
2018-10-05T00:00:21.255Z,9.30
2018-10-05T00:02:49.467Z,9.30
2018-10-05T00:05:17.687Z,9.70
2018-10-05T00:07:45.903Z,9.60
2018-10-05T00:10:14.130Z,9.50
2018-10-05T00:12:42.371Z,9.60
2018-10-05T00:15:10.594Z,9.70
2018-10-05T00:17:38.927Z,9.70
2018-10-05T00:20:07.198Z,9.80
2018-10-05T00:22:35.399Z,9.70
2018-10-05T00:25:03.639Z,9.60
2018-10-05T00:27:31.856Z,9.50
2018-10-05T00:30:00.089Z,9.60
2018-10-05T00:32:28.324Z,9.90
2018-10-05T00:34:56.539Z,9.70
2018-10-05T00:37:24.760Z,9.60
2018-10-05T00:39:52.991Z,9.60
2018-10-05T00:42:21.211Z,9.90
2018-10-05T00:44:49.490Z,9.90
2018-10-05T00:47:17.719Z,9.80
2018-10-05T00:49:45.947Z,9.80
2018-10-05T00:52:14.168Z,9.70
2018-10-05T00:54:42.387Z,9.50
2018-10-05T00:57:10.607Z,9.60
2018-10-05T00:59:38.986Z,9.50
2018-10-05T01:02:07.227Z,9.40
2018-10-05T01:04:35.435Z,9.40
2018-10-05T01:07:03.647Z,9.30
2018-10-05T01:09:31.855Z,9.20
2018-10-05T01:12:00.052Z,9.20
2018-10-05T01:14:28.286Z,9.20
2018-10-05T01:16:56.963Z,9.10
2018-10-05T01:19:25.187Z,9.20
2018-10-05T01:21:53.399Z,9.20
2018-10-05T01:24:21.614Z,9.00
2018-10-05T01:26:49.818Z,8.90
2018-10-05T01:29:18.056Z,8.90
2018-10-05T01:31:46.288Z,8.90
2018-10-05T01:34:14.500Z,8.80
2018-10-05T01:36:42.711Z,8.90
2018-10-05T01:39:10.915Z,9.00
2018-10-05T01:41:39.218Z,8.90
2018-10-05T01:44:07.431Z,9.00
2018-10-05T01:46:35.690Z,9.10
2018-10-05T01:49:04.007Z,9.10
2018-10-05T01:51:37.246Z,9.00
2018-10-05T01:54:06.237Z,9.10
2018-10-05T01:56:35.235Z,9.20
2018-10-05T01:59:03.712Z,9.20
2018-10-05T02:01:32.608Z,9.30
2018-10-05T02:04:00.980Z,9.20
2018-10-05T02:06:29.191Z,9.20
2018-10-05T02:08:57.396Z,9.20
2018-10-05T02:11:25.625Z,9.00
2018-10-05T02:13:53.831Z,9.00
2018-10-05T02:16:22.071Z,9.00
2018-10-05T02:18:50.315Z,8.80
2018-10-05T02:21:18.534Z,8.80
2018-10-05T02:23:46.735Z,8.70
2018-10-05T02:26:14.967Z,8.70
2018-10-05T02:28:43.255Z,8.70
2018-10-05T02:31:11.475Z,8.70
2018-10-05T02:33:39.703Z,8.70
2018-10-05T02:36:07.928Z,8.60
2018-10-05T02:38:36.371Z,8.60
2018-10-05T02:41:04.667Z,8.50
2018-10-05T02:43:33.399Z,8.60
2018-10-05T02:46:01.620Z,8.60
2018-10-05T02:48:29.826Z,8.60
2018-10-05T02:50:58.044Z,8.70
2018-10-05T02:53:26.259Z,8.70
2018-10-05T02:55:54.474Z,9.00
2018-10-05T02:58:22.678Z,9.10
2018-10-05T03:01:02.407Z,9.10
2018-10-05T03:03:30.622Z,8.90
2018-10-05T03:05:58.838Z,8.80
2018-10-05T03:08:27.053Z,8.90
2018-10-05T03:10:55.267Z,9.10
2018-10-05T03:13:23.482Z,9.10
2018-10-05T03:15:51.701Z,9.00
2018-10-05T03:18:19.904Z,8.90
2018-10-05T03:20:48.135Z,8.80
2018-10-05T03:23:16.356Z,8.70
2018-10-05T03:25:44.546Z,8.80
2018-10-05T03:28:12.767Z,8.70
2018-10-05T03:30:40.991Z,8.60
2018-10-05T03:33:09.249Z,8.50
2018-10-05T03:35:37.469Z,8.60
2018-10-05T03:38:05.946Z,8.60
2018-10-05T03:40:34.159Z,8.50
2018-10-05T03:43:02.366Z,8.50
2018-10-05T03:45:30.563Z,8.60
2018-10-05T03:47:58.784Z,8.50
2018-10-05T03:50:26.960Z,8.60
2018-10-05T03:52:55.203Z,8.50
2018-10-05T03:55:23.395Z,8.40
2018-10-05T03:57:51.586Z,8.40
2018-10-05T04:00:19.779Z,8.40
2018-10-05T04:02:47.984Z,8.50
2018-10-05T04:05:16.188Z,8.50
2018-10-05T04:07:44.399Z,8.40
2018-10-05T04:10:12.619Z,8.40
2018-10-05T04:12:40.844Z,8.40
2018-10-05T04:15:09.059Z,8.30
2018-10-05T04:17:37.277Z,8.30
2018-10-05T04:20:05.479Z,8.40
2018-10-05T04:22:33.697Z,8.50
2018-10-05T04:25:01.914Z,8.70
2018-10-05T04:27:30.139Z,8.70
2018-10-05T04:29:58.351Z,8.50
2018-10-05T04:32:26.808Z,8.50
2018-10-05T04:34:55.032Z,8.50
2018-10-05T04:37:23.827Z,8.50
2018-10-05T04:39:52.052Z,8.50
2018-10-05T04:42:20.276Z,8.40
2018-10-05T04:44:48.803Z,8.40
2018-10-05T04:47:17.078Z,8.50
2018-10-05T04:49:45.494Z,8.40
2018-10-05T04:52:13.647Z,8.30
2018-10-05T04:54:41.863Z,8.20
2018-10-05T04:57:10.084Z,8.20
2018-10-05T04:59:38.330Z,8.20
2018-10-05T05:02:06.583Z,8.10
2018-10-05T05:04:34.820Z,8.10
2018-10-05T05:07:03.022Z,8.20
2018-10-05T05:09:31.256Z,8.20
2018-10-05T05:11:59.546Z,8.40
2018-10-05T05:14:27.775Z,8.40
2018-10-05T05:16:56.004Z,8.50
2018-10-05T05:19:24.257Z,8.40
2018-10-05T05:21:52.464Z,8.60
2018-10-05T05:24:20.687Z,8.60
2018-10-05T05:26:48.903Z,8.40
2018-10-05T05:29:17.162Z,8.40
2018-10-05T05:31:45.506Z,8.50
2018-10-05T05:34:13.795Z,8.40
2018-10-05T05:36:42.026Z,8.30
2018-10-05T05:39:13.287Z,8.20
2018-10-05T05:41:41.535Z,8.30
2018-10-05T05:44:09.739Z,8.20
2018-10-05T05:46:37.979Z,8.10
2018-10-05T05:49:06.196Z,8.00
2018-10-05T05:51:34.407Z,8.00
2018-10-05T05:54:02.688Z,8.00
2018-10-05T05:56:30.905Z,8.10
2018-10-05T05:58:59.135Z,8.10
2018-10-05T06:01:27.338Z,8.20
2018-10-05T06:03:55.567Z,8.20
2018-10-05T06:06:23.794Z,8.30
2018-10-05T06:08:52.059Z,8.30
2018-10-05T06:11:20.275Z,8.30
2018-10-05T06:13:48.507Z,8.40
2018-10-05T06:16:16.791Z,8.40
2018-10-05T06:18:44.985Z,8.50
2018-10-05T06:21:13.199Z,8.40
2018-10-05T06:23:41.435Z,8.50
2018-10-05T06:26:09.675Z,8.40
2018-10-05T06:28:37.904Z,8.40
2018-10-05T06:31:06.397Z,8.50
2018-10-05T06:33:34.646Z,8.50
2018-10-05T06:36:02.941Z,8.50
2018-10-05T06:38:31.183Z,8.50
2018-10-05T06:40:59.611Z,8.50
2018-10-05T06:43:27.904Z,8.60
2018-10-05T06:45:56.172Z,8.70
2018-10-05T06:48:24.424Z,8.90
2018-10-05T06:50:52.673Z,9.40
2018-10-05T06:53:20.984Z,9.40
2018-10-05T06:55:49.176Z,9.40
2018-10-05T06:58:17.415Z,9.50
2018-10-05T07:00:45.739Z,9.50
2018-10-05T07:03:13.987Z,9.50
2018-10-05T07:05:42.317Z,9.60
2018-10-05T07:08:10.609Z,9.70
2018-10-05T07:10:38.823Z,9.70
2018-10-05T07:13:07.103Z,9.80
2018-10-05T07:15:35.368Z,9.80
2018-10-05T07:18:03.666Z,10.00
2018-10-05T07:20:32.042Z,10.10
2018-10-05T07:23:00.284Z,10.20
2018-10-05T07:25:28.530Z,10.20
2018-10-05T07:27:56.793Z,10.20
2018-10-05T07:30:25.055Z,10.40
2018-10-05T07:32:53.301Z,10.50
2018-10-05T07:35:21.548Z,10.60
2018-10-05T07:37:49.782Z,10.70
2018-10-05T07:40:18.031Z,10.90
2018-10-05T07:42:46.355Z,11.10
2018-10-05T07:45:14.630Z,11.20
2018-10-05T07:47:42.875Z,11.20
2018-10-05T07:50:11.125Z,11.30
2018-10-05T07:52:39.375Z,11.50
2018-10-05T07:55:07.627Z,11.60
2018-10-05T07:57:35.947Z,11.80
2018-10-05T08:00:04.447Z,11.90
2018-10-05T08:02:32.686Z,12.00
2018-10-05T08:05:00.947Z,12.10
2018-10-05T08:07:29.183Z,12.30
2018-10-05T08:09:57.452Z,12.50
2018-10-05T08:12:25.687Z,12.70
2018-10-05T08:14:53.934Z,13.00
2018-10-05T08:17:22.178Z,13.30
2018-10-05T08:19:50.439Z,13.60
2018-10-05T08:22:18.684Z,14.00
2018-10-05T08:24:47.401Z,14.30
2018-10-05T08:27:15.991Z,14.60
2018-10-05T08:29:44.188Z,14.90
2018-10-05T08:32:12.488Z,15.30
2018-10-05T08:34:40.801Z,15.50
2018-10-05T08:37:09.011Z,15.80
2018-10-05T08:39:37.278Z,16.10
2018-10-05T08:42:05.540Z,16.40
2018-10-05T08:44:33.802Z,16.80
2018-10-05T08:47:02.043Z,16.90
2018-10-05T08:49:30.424Z,17.10
2018-10-05T08:51:58.827Z,17.30
2018-10-05T08:54:27.105Z,17.50
2018-10-05T08:56:55.343Z,17.70
2018-10-05T08:59:23.604Z,18.00
2018-10-05T09:01:51.871Z,18.10
2018-10-05T09:04:20.123Z,18.40
2018-10-05T09:06:48.347Z,18.70
2018-10-05T09:09:16.631Z,18.90
2018-10-05T09:11:44.860Z,19.00
2018-10-05T09:14:13.101Z,19.30
2018-10-05T09:16:41.327Z,19.30
2018-10-05T09:19:09.571Z,19.60
2018-10-05T09:21:37.839Z,19.60
2018-10-05T09:24:06.138Z,19.80
2018-10-05T09:26:34.351Z,20.10
2018-10-05T09:29:02.592Z,20.10
2018-10-05T09:31:30.817Z,20.00
2018-10-05T09:33:59.084Z,20.10
2018-10-05T09:36:27.303Z,20.40
2018-10-05T09:38:55.532Z,20.60
2018-10-05T09:41:23.807Z,20.80
2018-10-05T09:43:52.517Z,21.10
2018-10-05T09:46:20.824Z,21.00
2018-10-05T09:48:49.120Z,21.10
2018-10-05T09:51:17.367Z,21.40
2018-10-05T09:53:45.614Z,21.30
2018-10-05T09:56:14.229Z,21.40
2018-10-05T09:58:42.560Z,21.50
2018-10-05T10:01:16.273Z,21.50
2018-10-05T10:03:44.521Z,21.60
2018-10-05T10:06:12.829Z,21.90
2018-10-05T10:08:41.084Z,22.40
2018-10-05T10:11:09.340Z,22.90
2018-10-05T10:13:37.624Z,23.20
2018-10-05T10:16:05.882Z,23.40
2018-10-05T10:18:34.322Z,23.10
2018-10-05T10:21:02.586Z,23.00
2018-10-05T10:23:30.834Z,23.00
2018-10-05T10:25:59.103Z,23.30
2018-10-05T10:28:27.504Z,23.50
2018-10-05T10:30:55.636Z,23.50
2018-10-05T10:33:23.917Z,23.60
2018-10-05T10:35:52.168Z,24.00
2018-10-05T10:38:20.455Z,24.40
2018-10-05T10:40:48.712Z,24.60
2018-10-05T10:43:17.029Z,24.90
2018-10-05T10:45:45.290Z,24.80
2018-10-05T10:48:16.745Z,25.10
2018-10-05T10:50:44.940Z,25.00
2018-10-05T10:53:13.306Z,24.60
2018-10-05T10:55:41.532Z,24.90
2018-10-05T10:58:09.801Z,24.80
2018-10-05T11:00:38.120Z,25.10
2018-10-05T11:03:06.723Z,25.30
2018-10-05T11:05:34.939Z,25.20
2018-10-05T11:08:03.180Z,25.50
2018-10-05T11:10:31.429Z,26.00
2018-10-05T11:12:59.680Z,26.30
2018-10-05T11:15:28.213Z,26.40
2018-10-05T11:17:56.714Z,26.20
2018-10-05T11:20:29.821Z,26.40
2018-10-05T11:23:12.708Z,26.40
2018-10-05T11:25:46.749Z,26.40
2018-10-05T11:28:19.149Z,26.50
2018-10-05T11:33:43.423Z,26.70
2018-10-05T11:36:11.739Z,26.60
2018-10-05T11:38:39.994Z,26.60
2018-10-05T11:41:08.283Z,26.40
2018-10-05T11:43:36.500Z,26.20
2018-10-05T11:46:04.756Z,26.40
2018-10-05T11:48:34.660Z,26.50
2018-10-05T11:51:02.923Z,26.40
2018-10-05T11:53:31.148Z,26.30
2018-10-05T11:55:59.391Z,26.10
2018-10-05T11:58:27.619Z,26.00
2018-10-05T12:00:55.850Z,25.80
2018-10-05T12:03:24.442Z,25.50
2018-10-05T12:05:52.711Z,25.20
2018-10-05T12:08:20.934Z,25.10
2018-10-05T12:10:49.175Z,25.10
2018-10-05T12:13:17.422Z,24.90
2018-10-05T12:15:46.336Z,24.90
2018-10-05T12:18:14.548Z,24.70
2018-10-05T12:20:42.771Z,24.60
2018-10-05T12:23:11.087Z,24.50
2018-10-05T12:25:39.466Z,24.30
2018-10-05T12:28:07.913Z,24.20
2018-10-05T12:30:36.278Z,24.10
2018-10-05T12:33:04.524Z,24.00
2018-10-05T12:35:33.043Z,24.00
2018-10-05T12:38:01.299Z,23.90
2018-10-05T12:40:29.532Z,23.80
2018-10-05T12:42:57.759Z,23.90
2018-10-05T12:45:25.995Z,23.70
2018-10-05T12:47:54.219Z,23.60
2018-10-05T12:50:22.466Z,23.60
2018-10-05T12:52:50.726Z,23.50
2018-10-05T12:55:18.971Z,23.50
2018-10-05T12:57:47.192Z,23.40
2018-10-05T13:00:15.559Z,23.30
2018-10-05T13:02:43.846Z,23.20
2018-10-05T13:05:12.096Z,23.20
2018-10-05T13:07:40.320Z,23.20
2018-10-05T13:10:08.607Z,23.10
2018-10-05T13:12:37.015Z,23.10
2018-10-05T13:15:05.253Z,23.10
2018-10-05T13:17:34.580Z,23.00
2018-10-05T13:20:02.821Z,23.00
2018-10-05T13:22:31.057Z,23.00
2018-10-05T13:24:59.288Z,22.90
2018-10-05T13:27:27.539Z,22.90
2018-10-05T13:29:55.758Z,22.90
2018-10-05T13:32:24.018Z,22.90
2018-10-05T13:34:52.251Z,22.80
2018-10-05T13:37:20.520Z,22.90
2018-10-05T13:39:48.715Z,22.80
2018-10-05T13:42:17.011Z,22.80
2018-10-05T13:44:45.228Z,22.80
2018-10-05T13:47:13.590Z,22.80
2018-10-05T13:49:41.811Z,22.70
2018-10-05T13:52:10.060Z,22.70
2018-10-05T13:54:38.271Z,22.70
2018-10-05T13:57:06.500Z,22.70
2018-10-05T13:59:34.764Z,22.70
2018-10-05T14:02:02.998Z,22.70
2018-10-05T14:04:31.248Z,22.60
2018-10-05T14:06:59.509Z,22.60
2018-10-05T14:09:27.720Z,22.50
2018-10-05T14:11:55.971Z,22.50
2018-10-05T14:14:24.212Z,22.50
2018-10-05T14:16:52.464Z,22.50
2018-10-05T14:19:20.773Z,22.40
2018-10-05T14:21:49.040Z,22.40
2018-10-05T14:24:17.269Z,22.40
2018-10-05T14:26:45.515Z,22.30
2018-10-05T14:29:13.726Z,22.30
2018-10-05T14:31:41.989Z,22.30
2018-10-05T14:34:10.224Z,22.30
2018-10-05T14:36:38.563Z,22.30
2018-10-05T14:39:07.670Z,22.30
2018-10-05T14:41:35.938Z,22.30
2018-10-05T14:44:04.184Z,22.20
2018-10-05T14:46:32.438Z,22.20
2018-10-05T14:49:00.731Z,22.20
2018-10-05T14:51:28.987Z,22.10
2018-10-05T14:53:57.256Z,22.10
2018-10-05T14:56:25.532Z,22.10
2018-10-05T14:58:53.765Z,22.00
2018-10-05T15:01:22.020Z,22.00
2018-10-05T15:03:50.276Z,21.90
2018-10-05T15:06:18.511Z,21.80
2018-10-05T15:08:46.801Z,21.80
2018-10-05T15:11:15.115Z,21.70
2018-10-05T15:13:43.468Z,21.70
2018-10-05T15:16:11.762Z,21.60
2018-10-05T15:18:40.017Z,21.60
2018-10-05T15:21:08.296Z,21.50
2018-10-05T15:23:36.700Z,21.50
2018-10-05T15:26:04.962Z,21.40
2018-10-05T15:28:33.359Z,21.40
2018-10-05T15:31:01.618Z,21.40
2018-10-05T15:33:29.857Z,21.30
2018-10-05T15:35:58.926Z,21.20
2018-10-05T15:38:27.175Z,21.20
2018-10-05T15:40:55.476Z,21.10
2018-10-05T15:43:23.731Z,21.10
2018-10-05T15:45:55.494Z,21.00
2018-10-05T15:48:23.829Z,21.00
2018-10-05T15:50:52.089Z,20.80
2018-10-05T15:53:20.368Z,20.80
2018-10-05T15:55:48.596Z,20.70
2018-10-05T15:58:16.910Z,20.60
2018-10-05T16:00:45.137Z,20.60
2018-10-05T16:03:13.396Z,20.60
2018-10-05T16:05:41.668Z,20.50
2018-10-05T16:08:09.967Z,20.50
2018-10-05T16:10:38.300Z,20.50
2018-10-05T16:13:06.873Z,20.30
2018-10-05T16:15:35.178Z,20.30
2018-10-05T16:18:03.469Z,20.20
2018-10-05T16:20:31.682Z,20.00
2018-10-05T16:22:59.947Z,20.00
2018-10-05T16:25:28.179Z,20.00
2018-10-05T16:27:56.420Z,19.90
2018-10-05T16:30:24.662Z,19.80
2018-10-05T16:32:52.911Z,19.80
2018-10-05T16:35:21.146Z,19.80
2018-10-05T16:37:52.496Z,19.80
2018-10-05T16:40:20.799Z,19.70
2018-10-05T16:42:49.075Z,19.70
2018-10-05T16:45:17.332Z,19.70
2018-10-05T16:47:45.657Z,19.60
2018-10-05T16:50:13.944Z,19.50
2018-10-05T16:52:42.194Z,19.40
2018-10-05T16:55:10.446Z,19.30
2018-10-05T16:57:38.691Z,19.20
2018-10-05T17:00:10.324Z,19.20
2018-10-05T17:02:38.619Z,19.20
2018-10-05T17:05:16.787Z,19.20
2018-10-05T17:07:45.220Z,19.20
2018-10-05T17:10:13.494Z,19.10
2018-10-05T17:12:41.749Z,19.10
2018-10-05T17:15:09.994Z,19.00
2018-10-05T17:17:38.240Z,19.00
2018-10-05T17:20:06.479Z,18.90
2018-10-05T17:22:34.731Z,18.90
2018-10-05T17:25:03.020Z,18.80
2018-10-05T17:27:31.259Z,18.70
2018-10-05T17:29:59.487Z,18.50
2018-10-05T17:32:28.092Z,18.30
2018-10-05T17:34:56.343Z,18.30
2018-10-05T17:37:25.120Z,18.30
2018-10-05T17:39:53.368Z,18.20
2018-10-05T17:42:21.603Z,18.20
2018-10-05T17:44:50.175Z,18.20
2018-10-05T17:47:21.539Z,18.10
2018-10-05T17:49:49.961Z,18.10
2018-10-05T17:52:18.240Z,18.00
2018-10-05T17:54:46.463Z,18.00
2018-10-05T17:57:14.915Z,18.00
2018-10-05T17:59:43.141Z,17.80
2018-10-05T18:02:11.366Z,17.70
2018-10-05T18:04:39.607Z,17.60
2018-10-05T18:07:07.832Z,17.40
2018-10-05T18:09:36.280Z,17.40
2018-10-05T18:12:04.548Z,17.30
2018-10-05T18:14:32.784Z,17.30
2018-10-05T18:17:00.986Z,17.20
2018-10-05T18:19:29.219Z,17.20
2018-10-05T18:21:57.467Z,17.10
2018-10-05T18:24:25.690Z,17.00
2018-10-05T18:26:53.899Z,16.90
2018-10-05T18:29:22.121Z,16.90
2018-10-05T18:31:50.335Z,16.90
2018-10-05T18:34:18.555Z,16.90
2018-10-05T18:36:46.773Z,16.80
2018-10-05T18:39:15.008Z,16.70
2018-10-05T18:41:43.235Z,16.70
2018-10-05T18:44:11.493Z,16.70
2018-10-05T18:46:39.695Z,16.70
2018-10-05T18:49:07.937Z,16.70
2018-10-05T18:51:36.162Z,16.60
2018-10-05T18:54:04.426Z,16.60
2018-10-05T18:56:44.121Z,16.70
2018-10-05T18:59:12.363Z,16.70
2018-10-05T19:01:40.563Z,16.60
2018-10-05T19:04:08.791Z,16.50
2018-10-05T19:06:37.018Z,16.40
2018-10-05T19:09:06.167Z,16.40
2018-10-05T19:11:35.166Z,16.20
2018-10-05T19:14:03.390Z,16.00
2018-10-05T19:16:31.814Z,15.90
2018-10-05T19:19:00.040Z,16.00
2018-10-05T19:21:28.348Z,15.90
2018-10-05T19:23:56.564Z,15.80
2018-10-05T19:26:25.000Z,15.80
2018-10-05T19:28:53.056Z,15.80
2018-10-05T19:31:21.509Z,15.70
2018-10-05T19:33:49.726Z,15.70
2018-10-05T19:36:17.970Z,15.60
2018-10-05T19:38:46.171Z,15.50
2018-10-05T19:41:14.399Z,15.40
2018-10-05T19:43:42.618Z,15.40
2018-10-05T19:46:10.824Z,15.40
2018-10-05T19:48:39.032Z,15.40
2018-10-05T19:51:07.255Z,15.40
2018-10-05T19:53:35.486Z,15.40
2018-10-05T19:56:03.668Z,15.30
2018-10-05T19:58:31.867Z,15.30
2018-10-05T20:01:00.075Z,15.10
2018-10-05T20:03:28.273Z,15.10
2018-10-05T20:05:56.482Z,15.00
2018-10-05T20:08:24.707Z,15.20
2018-10-05T20:10:52.907Z,15.10
2018-10-05T20:13:21.103Z,15.10
2018-10-05T20:15:49.315Z,14.90
2018-10-05T20:18:17.668Z,14.90
2018-10-05T20:20:45.755Z,14.80
2018-10-05T20:23:13.943Z,14.80
2018-10-05T20:25:42.231Z,14.60
2018-10-05T20:28:10.420Z,14.60
2018-10-05T20:30:38.623Z,14.60
2018-10-05T20:33:06.883Z,14.60
2018-10-05T20:35:35.142Z,14.70
2018-10-05T20:38:03.311Z,14.60
2018-10-05T20:40:31.895Z,14.50
2018-10-05T20:43:00.267Z,14.50
2018-10-05T20:45:28.499Z,14.40
2018-10-05T20:47:56.814Z,14.40
2018-10-05T20:50:25.007Z,14.40
2018-10-05T20:52:53.786Z,14.30
2018-10-05T20:55:21.984Z,14.20
2018-10-05T20:57:50.277Z,14.10
2018-10-05T21:00:18.481Z,14.00
2018-10-05T21:02:46.734Z,14.00
2018-10-05T21:05:14.934Z,14.10
2018-10-05T21:07:43.351Z,14.00
2018-10-05T21:10:11.818Z,14.00
2018-10-05T21:12:40.204Z,14.00
2018-10-05T21:15:08.470Z,13.90
2018-10-05T21:17:36.603Z,14.00
2018-10-05T21:20:04.851Z,14.00
2018-10-05T21:22:33.047Z,13.90
2018-10-05T21:25:01.244Z,13.80
2018-10-05T21:27:29.450Z,13.80
2018-10-05T21:29:57.650Z,13.80
2018-10-05T21:32:25.951Z,13.80
2018-10-05T21:34:54.144Z,13.60
2018-10-05T21:37:22.351Z,13.50
2018-10-05T21:39:50.547Z,13.40
2018-10-05T21:42:18.767Z,13.40
2018-10-05T21:44:46.973Z,13.40
2018-10-05T21:47:15.180Z,13.20
2018-10-05T21:49:43.368Z,13.20
2018-10-05T21:52:11.576Z,13.30
2018-10-05T21:54:39.763Z,13.20
2018-10-05T21:57:07.975Z,13.10
2018-10-05T21:59:36.174Z,13.10
2018-10-05T22:02:04.365Z,13.00
2018-10-05T22:04:32.558Z,13.10
2018-10-05T22:07:00.767Z,13.10
2018-10-05T22:09:28.955Z,13.00
2018-10-05T22:11:57.155Z,12.90
2018-10-05T22:14:25.343Z,13.00
2018-10-05T22:16:53.539Z,13.00
2018-10-05T22:19:21.788Z,13.00
2018-10-05T22:21:49.948Z,13.00
2018-10-05T22:24:18.251Z,13.00
2018-10-05T22:26:46.454Z,13.00
2018-10-05T22:29:14.654Z,13.00
2018-10-05T22:31:42.862Z,13.00
2018-10-05T22:34:11.078Z,13.00
2018-10-05T22:36:39.315Z,13.00
2018-10-05T22:39:07.634Z,12.90
2018-10-05T22:41:36.024Z,12.90
2018-10-05T22:44:04.250Z,12.70
2018-10-05T22:46:32.475Z,12.80
2018-10-05T22:49:00.845Z,12.70
2018-10-05T22:51:29.054Z,12.70
2018-10-05T22:53:57.287Z,12.70
2018-10-05T22:56:25.500Z,12.70
2018-10-05T22:58:53.731Z,12.70
2018-10-05T23:01:21.944Z,12.60
2018-10-05T23:03:50.178Z,12.70
2018-10-05T23:06:18.391Z,12.80
2018-10-05T23:08:46.665Z,12.80
2018-10-05T23:11:14.874Z,12.90
2018-10-05T23:13:43.107Z,13.00
2018-10-05T23:16:11.327Z,13.00
2018-10-05T23:18:39.548Z,13.00
2018-10-05T23:21:07.763Z,12.90
2018-10-05T23:23:36.060Z,12.90
2018-10-05T23:26:04.264Z,12.90
2018-10-05T23:28:32.487Z,12.90
2018-10-05T23:31:00.711Z,12.80
2018-10-05T23:33:28.932Z,12.90
2018-10-05T23:35:57.177Z,12.80
2018-10-05T23:38:25.406Z,12.90
2018-10-05T23:40:53.654Z,12.80
2018-10-05T23:43:21.930Z,12.70
2018-10-05T23:45:50.143Z,12.80
2018-10-05T23:48:18.587Z,12.70
2018-10-05T23:50:46.940Z,12.60
2018-10-05T23:53:15.195Z,12.50
2018-10-05T23:55:43.445Z,12.50
2018-10-05T23:58:11.707Z,12.60
